createdAt,value
2023-02-28T00:01:27.826Z,21.33
2023-02-28T00:03:55.376Z,21.53
2023-02-28T00:06:22.542Z,19.37
2023-02-28T00:08:49.785Z,19.57
2023-02-28T00:11:17.052Z,18.20
2023-02-28T00:13:47.213Z,21.43
2023-02-28T00:16:15.968Z,25.23
2023-02-28T00:18:43.235Z,31.43
2023-02-28T00:21:10.396Z,23.17
2023-02-28T00:23:37.562Z,29.57
2023-02-28T00:26:04.751Z,22.20
2023-02-28T00:28:31.887Z,17.73
2023-02-28T00:31:00.934Z,18.37
2023-02-28T00:33:28.607Z,20.53
2023-02-28T00:36:02.822Z,15.57
2023-02-28T00:38:29.993Z,20.63
2023-02-28T00:40:57.111Z,27.47
2023-02-28T00:43:24.260Z,23.17
2023-02-28T00:45:51.449Z,23.70
2023-02-28T00:48:18.564Z,20.50
2023-02-28T00:50:45.717Z,21.20
2023-02-28T00:53:12.845Z,20.97
2023-02-28T00:55:39.955Z,50.53
2023-02-28T00:58:07.061Z,17.60
2023-02-28T01:00:34.190Z,21.87
2023-02-28T01:03:01.325Z,20.83
2023-02-28T01:05:28.473Z,20.00
2023-02-28T01:07:55.640Z,27.33
2023-02-28T01:10:22.789Z,19.33
2023-02-28T01:12:49.894Z,24.80
2023-02-28T01:15:17.142Z,21.73
2023-02-28T01:17:44.253Z,20.07
2023-02-28T01:20:11.805Z,20.03
2023-02-28T01:22:38.948Z,19.57
2023-02-28T01:25:06.264Z,20.27
2023-02-28T01:27:33.419Z,17.07
2023-02-28T01:30:00.568Z,17.97
2023-02-28T01:32:27.731Z,15.80
2023-02-28T01:34:54.939Z,17.33
2023-02-28T01:37:22.097Z,15.37
2023-02-28T01:39:49.220Z,17.50
2023-02-28T01:42:16.336Z,14.67
2023-02-28T01:44:59.282Z,13.97
2023-02-28T01:47:27.595Z,12.37
2023-02-28T01:49:54.769Z,14.23
2023-02-28T01:52:22.120Z,13.43
2023-02-28T01:54:58.688Z,19.37
2023-02-28T01:57:26.946Z,12.93
2023-02-28T01:59:56.439Z,15.10
2023-02-28T02:02:23.777Z,15.40
2023-02-28T02:05:07.680Z,16.57
2023-02-28T02:07:35.731Z,13.43
2023-02-28T02:10:04.153Z,11.60
2023-02-28T02:12:31.273Z,12.63
2023-02-28T02:15:13.370Z,12.97
2023-02-28T02:17:41.361Z,15.63
2023-02-28T02:20:08.468Z,13.43
2023-02-28T02:22:38.687Z,14.23
2023-02-28T02:25:09.470Z,15.33
2023-02-28T02:27:40.970Z,14.43
2023-02-28T02:30:23.352Z,13.27
2023-02-28T02:32:56.612Z,11.07
2023-02-28T02:35:30.829Z,11.40
2023-02-28T02:38:08.126Z,11.33
2023-02-28T02:40:38.260Z,9.03
2023-02-28T02:43:22.098Z,9.43
2023-02-28T02:45:54.268Z,10.90
2023-02-28T02:48:21.618Z,10.17
2023-02-28T02:50:51.117Z,10.27
2023-02-28T02:53:19.038Z,11.53
2023-02-28T02:55:46.339Z,11.37
2023-02-28T02:58:15.148Z,12.97
2023-02-28T03:00:47.704Z,13.73
2023-02-28T03:03:14.905Z,13.87
2023-02-28T03:05:52.044Z,10.80
2023-02-28T03:08:20.752Z,18.60
2023-02-28T03:10:48.418Z,17.00
2023-02-28T03:13:27.871Z,20.10
2023-02-28T03:16:00.876Z,21.93
2023-02-28T03:18:37.044Z,21.53
2023-02-28T03:21:07.168Z,33.57
2023-02-28T03:23:44.508Z,42.70
2023-02-28T03:26:24.784Z,85.97
2023-02-28T03:28:54.706Z,88.93
2023-02-28T03:31:31.128Z,71.10
2023-02-28T03:33:58.465Z,69.13
2023-02-28T03:36:27.169Z,66.67
2023-02-28T03:38:56.611Z,56.00
2023-02-28T03:41:24.844Z,47.80
2023-02-28T03:43:55.917Z,30.37
2023-02-28T03:46:24.456Z,31.10
2023-02-28T03:48:58.398Z,46.10
2023-02-28T03:51:26.270Z,52.20
2023-02-28T03:53:54.758Z,84.27
2023-02-28T03:56:29.728Z,75.43
2023-02-28T03:59:14.861Z,83.63
2023-02-28T04:01:49.084Z,100.87
2023-02-28T04:04:16.420Z,78.20
2023-02-28T04:06:43.810Z,88.87
2023-02-28T04:11:39.533Z,46.43
2023-02-28T04:14:06.995Z,29.80
2023-02-28T04:16:35.839Z,39.63
2023-02-28T04:19:05.819Z,42.93
2023-02-28T04:21:36.991Z,82.70
2023-02-28T04:24:04.525Z,194.00
2023-02-28T04:26:32.249Z,134.47
2023-02-28T04:28:59.745Z,90.90
2023-02-28T04:31:27.051Z,46.87
2023-02-28T04:33:54.270Z,67.33
2023-02-28T04:36:21.663Z,65.57
2023-02-28T04:38:48.828Z,58.10
2023-02-28T04:41:15.956Z,46.37
2023-02-28T04:43:43.173Z,50.73
2023-02-28T04:46:11.089Z,46.63
2023-02-28T04:48:38.614Z,39.47
2023-02-28T04:51:09.334Z,50.73
2023-02-28T04:53:37.315Z,43.97
2023-02-28T04:56:04.576Z,46.67
2023-02-28T04:58:31.772Z,67.10
2023-02-28T05:01:05.352Z,71.70
2023-02-28T05:03:32.551Z,78.83
2023-02-28T05:05:59.647Z,70.43
2023-02-28T05:08:26.910Z,83.67
2023-02-28T05:10:54.105Z,69.60
2023-02-28T05:13:21.211Z,64.10
2023-02-28T05:15:48.393Z,51.43
2023-02-28T05:18:15.566Z,46.40
2023-02-28T05:20:42.694Z,52.43
2023-02-28T05:23:10.188Z,49.03
2023-02-28T05:25:37.324Z,70.40
2023-02-28T05:28:04.859Z,81.37
2023-02-28T05:30:32.633Z,72.30
2023-02-28T05:32:59.808Z,67.43
2023-02-28T05:35:27.013Z,72.90
2023-02-28T05:37:54.165Z,96.83
2023-02-28T05:40:21.525Z,96.13
2023-02-28T05:42:48.698Z,109.20
2023-02-28T05:45:15.969Z,112.73
2023-02-28T05:47:43.089Z,80.00
2023-02-28T05:50:11.496Z,101.43
2023-02-28T05:52:38.852Z,98.60
2023-02-28T05:55:06.209Z,121.53
2023-02-28T05:57:33.346Z,72.03
2023-02-28T06:00:00.467Z,71.77
2023-02-28T06:02:27.646Z,64.87
2023-02-28T06:04:54.978Z,54.57
2023-02-28T06:07:23.369Z,59.20
2023-02-28T06:09:50.521Z,54.63
2023-02-28T06:12:18.513Z,78.23
2023-02-28T06:14:45.711Z,147.20
2023-02-28T06:17:12.848Z,149.50
2023-02-28T06:19:40.900Z,97.60
2023-02-28T06:22:08.017Z,72.57
2023-02-28T06:24:35.139Z,52.90
2023-02-28T06:27:05.919Z,48.37
2023-02-28T06:29:33.866Z,44.57
2023-02-28T06:32:01.085Z,47.83
2023-02-28T06:34:28.296Z,48.53
2023-02-28T06:36:55.400Z,53.17
2023-02-28T06:39:22.908Z,55.07
2023-02-28T06:41:55.850Z,54.53
2023-02-28T06:44:23.590Z,51.67
2023-02-28T06:46:50.740Z,50.50
2023-02-28T06:49:17.989Z,62.23
2023-02-28T06:51:48.466Z,60.80
2023-02-28T06:54:16.178Z,38.97
2023-02-28T06:56:43.361Z,39.30
2023-02-28T06:59:10.620Z,33.77
2023-02-28T07:01:37.831Z,46.63
2023-02-28T07:04:05.218Z,36.90
2023-02-28T07:06:32.400Z,39.63
2023-02-28T07:08:59.555Z,33.83
2023-02-28T07:11:27.117Z,35.50
2023-02-28T07:13:54.919Z,40.73
2023-02-28T07:16:22.132Z,37.33
2023-02-28T07:18:49.567Z,46.57
2023-02-28T07:21:16.845Z,53.40
2023-02-28T07:23:43.973Z,45.57
2023-02-28T07:26:13.919Z,48.20
2023-02-28T07:28:41.062Z,47.23
2023-02-28T07:31:08.430Z,55.33
2023-02-28T07:33:35.598Z,46.13
2023-02-28T07:36:06.486Z,49.67
2023-02-28T07:38:35.939Z,59.47
2023-02-28T07:41:05.326Z,42.30
2023-02-28T07:43:32.950Z,37.93
2023-02-28T07:46:03.785Z,42.80
2023-02-28T07:48:30.903Z,38.00
2023-02-28T07:50:58.395Z,45.70
2023-02-28T07:53:25.522Z,32.57
2023-02-28T07:55:54.603Z,38.87
2023-02-28T07:58:22.704Z,39.60
2023-02-28T08:00:49.860Z,37.87
2023-02-28T08:03:16.965Z,39.57
2023-02-28T08:05:44.157Z,43.23
2023-02-28T08:08:11.288Z,32.67
2023-02-28T08:10:38.448Z,32.27
2023-02-28T08:13:05.614Z,25.23
2023-02-28T08:15:32.793Z,19.43
2023-02-28T08:17:59.943Z,24.40
2023-02-28T08:20:27.280Z,20.90
2023-02-28T08:22:54.436Z,17.13
2023-02-28T08:25:21.976Z,16.73
2023-02-28T08:27:49.162Z,16.73
2023-02-28T08:30:16.755Z,16.30
2023-02-28T08:32:43.959Z,17.10
2023-02-28T08:35:11.413Z,12.60
2023-02-28T08:37:38.795Z,19.07
2023-02-28T08:40:06.207Z,15.80
2023-02-28T08:42:33.750Z,13.83
2023-02-28T08:45:00.865Z,14.33
2023-02-28T08:47:28.010Z,9.67
2023-02-28T08:49:55.135Z,9.70
2023-02-28T08:52:22.250Z,8.40
2023-02-28T08:54:49.523Z,11.07
2023-02-28T08:57:16.660Z,9.50
2023-02-28T08:59:43.767Z,8.33
2023-02-28T09:02:12.054Z,10.03
2023-02-28T09:04:39.248Z,12.20
2023-02-28T09:07:06.401Z,12.83
2023-02-28T09:09:33.530Z,10.83
2023-02-28T09:12:00.924Z,12.43
2023-02-28T09:14:28.102Z,13.10
2023-02-28T09:16:55.868Z,11.40
2023-02-28T09:19:23.415Z,12.10
2023-02-28T09:21:50.876Z,12.00
2023-02-28T09:24:19.093Z,17.10
2023-02-28T09:27:01.700Z,13.00
2023-02-28T09:29:31.331Z,11.97
2023-02-28T09:32:01.407Z,10.77
2023-02-28T09:34:29.003Z,16.47
2023-02-28T09:36:56.466Z,18.53
2023-02-28T09:39:23.894Z,13.80
2023-02-28T09:41:54.294Z,11.70
2023-02-28T09:44:32.413Z,11.07
2023-02-28T09:47:01.329Z,11.27
2023-02-28T09:49:39.350Z,11.75
2023-02-28T09:52:10.098Z,11.35
2023-02-28T09:54:37.252Z,10.27
2023-02-28T09:57:24.666Z,8.23
2023-02-28T09:59:57.822Z,8.97
2023-02-28T10:02:30.848Z,11.23
2023-02-28T10:04:58.974Z,11.73
2023-02-28T10:07:44.456Z,10.25
2023-02-28T10:10:22.462Z,11.75
2023-02-28T10:12:49.637Z,8.82
2023-02-28T10:15:17.263Z,10.18
2023-02-28T10:17:55.301Z,9.63
2023-02-28T10:20:34.906Z,10.73
2023-02-28T10:23:21.017Z,16.30
2023-02-28T10:26:00.000Z,9.23
2023-02-28T10:28:27.456Z,8.98
2023-02-28T10:30:55.191Z,8.88
2023-02-28T10:33:40.634Z,9.50
2023-02-28T10:36:08.597Z,8.80
2023-02-28T10:38:36.850Z,9.63
2023-02-28T10:41:05.323Z,8.52
2023-02-28T10:43:32.451Z,9.57
2023-02-28T10:46:11.836Z,13.20
2023-02-28T10:48:39.023Z,12.48
2023-02-28T10:51:06.888Z,10.70
2023-02-28T10:53:44.789Z,10.02
2023-02-28T10:56:17.515Z,9.98
2023-02-28T10:58:53.919Z,9.85
2023-02-28T11:01:41.401Z,8.43
2023-02-28T11:04:30.144Z,17.83
2023-02-28T11:07:01.026Z,15.00
2023-02-28T11:09:33.900Z,8.95
2023-02-28T11:12:01.113Z,10.07
2023-02-28T11:14:31.656Z,9.38
2023-02-28T11:17:00.776Z,9.80
2023-02-28T11:19:33.794Z,9.05
2023-02-28T11:22:01.388Z,12.57
2023-02-28T11:24:32.572Z,11.73
2023-02-28T11:26:59.705Z,10.90
2023-02-28T11:29:27.891Z,8.18
2023-02-28T11:32:08.471Z,9.50
2023-02-28T11:34:36.204Z,10.48
2023-02-28T11:37:06.346Z,8.57
2023-02-28T11:39:37.024Z,8.55
2023-02-28T11:42:17.317Z,15.15
2023-02-28T11:44:55.889Z,9.60
2023-02-28T11:47:26.046Z,10.55
2023-02-28T11:50:02.141Z,9.45
2023-02-28T11:52:38.215Z,11.18
2023-02-28T11:55:08.904Z,10.35
2023-02-28T11:57:51.448Z,12.55
2023-02-28T12:00:34.046Z,10.82
2023-02-28T12:03:19.813Z,13.10
2023-02-28T12:05:47.819Z,8.93
2023-02-28T12:08:23.212Z,7.75
2023-02-28T12:11:09.198Z,11.38
2023-02-28T12:13:39.764Z,11.52
2023-02-28T12:16:19.262Z,12.43
2023-02-28T12:19:09.626Z,10.02
2023-02-28T12:21:55.273Z,12.15
2023-02-28T12:24:28.474Z,9.55
2023-02-28T12:26:55.658Z,9.07
2023-02-28T12:29:30.421Z,10.93
2023-02-28T12:31:58.533Z,11.48
2023-02-28T12:34:27.579Z,8.60
2023-02-28T12:36:55.096Z,12.27
2023-02-28T12:39:23.986Z,21.38
2023-02-28T12:42:00.280Z,12.82
2023-02-28T12:44:37.252Z,14.25
2023-02-28T12:47:06.380Z,10.70
2023-02-28T12:49:35.189Z,11.93
2023-02-28T12:52:02.600Z,8.20
2023-02-28T12:54:36.323Z,9.35
2023-02-28T12:57:15.018Z,9.30
2023-02-28T12:59:48.407Z,9.85
2023-02-28T13:02:15.553Z,10.13
2023-02-28T13:04:42.772Z,10.93
2023-02-28T13:07:12.643Z,9.55
2023-02-28T13:09:39.957Z,8.70
2023-02-28T13:12:16.520Z,14.95
2023-02-28T13:14:43.777Z,11.85
2023-02-28T13:17:10.904Z,10.80
2023-02-28T13:19:42.172Z,9.95
2023-02-28T13:22:17.933Z,10.13
2023-02-28T13:24:49.410Z,13.32
2023-02-28T13:27:16.520Z,13.52
2023-02-28T13:29:45.472Z,11.13
2023-02-28T13:32:12.650Z,13.55
2023-02-28T13:34:40.620Z,15.38
2023-02-28T13:37:23.125Z,12.98
2023-02-28T13:40:02.327Z,18.30
2023-02-28T13:42:32.656Z,13.43
2023-02-28T13:45:05.768Z,17.02
2023-02-28T13:47:46.202Z,26.52
2023-02-28T13:50:28.577Z,51.97
2023-02-28T13:53:14.529Z,15.10
2023-02-28T13:56:11.041Z,19.10
2023-02-28T13:58:57.645Z,19.45
2023-02-28T14:01:44.018Z,15.00
2023-02-28T14:04:30.912Z,18.23
2023-02-28T14:06:59.559Z,15.25
2023-02-28T14:09:27.647Z,18.50
2023-02-28T14:11:54.908Z,18.42
2023-02-28T14:14:37.303Z,18.73
2023-02-28T14:17:14.249Z,11.65
2023-02-28T14:19:41.404Z,18.98
2023-02-28T14:22:14.316Z,16.77
2023-02-28T14:24:59.938Z,22.48
2023-02-28T14:27:40.967Z,26.08
2023-02-28T14:30:15.301Z,18.70
2023-02-28T14:33:11.709Z,17.42
2023-02-28T14:35:45.305Z,17.02
2023-02-28T14:38:15.901Z,20.33
2023-02-28T14:40:43.110Z,33.88
2023-02-28T14:43:29.167Z,97.63
2023-02-28T14:46:00.166Z,99.43
2023-02-28T14:48:27.830Z,57.00
2023-02-28T14:50:55.963Z,16.95
2023-02-28T14:53:23.724Z,189.90
2023-02-28T14:55:51.020Z,140.10
2023-02-28T14:58:31.386Z,242.63
2023-02-28T15:00:59.563Z,136.90
2023-02-28T15:03:31.742Z,69.87
2023-02-28T15:05:59.729Z,99.60
2023-02-28T15:08:29.923Z,146.43
2023-02-28T15:11:01.596Z,73.60
2023-02-28T15:13:33.580Z,33.83
2023-02-28T15:16:05.012Z,34.87
2023-02-28T15:18:33.536Z,21.93
2023-02-28T15:21:01.241Z,19.07
2023-02-28T15:23:28.365Z,17.87
2023-02-28T15:25:55.528Z,21.80
2023-02-28T15:28:23.616Z,22.67
2023-02-28T15:30:54.841Z,21.00
2023-02-28T15:33:23.473Z,21.33
2023-02-28T15:35:50.689Z,30.17
2023-02-28T15:38:17.898Z,25.50
2023-02-28T15:40:46.091Z,49.47
2023-02-28T15:43:17.527Z,33.20
2023-02-28T15:45:47.574Z,34.07
2023-02-28T15:48:21.006Z,33.50
2023-02-28T15:50:55.882Z,30.50
2023-02-28T15:53:24.619Z,22.20
2023-02-28T15:56:00.008Z,23.00
2023-02-28T15:58:27.184Z,26.10
2023-02-28T16:01:06.331Z,22.73
2023-02-28T16:03:44.492Z,24.47
2023-02-28T16:06:30.373Z,32.40
2023-02-28T16:08:57.472Z,40.33
2023-02-28T16:11:24.659Z,30.20
2023-02-28T16:13:52.251Z,26.80
2023-02-28T16:16:20.369Z,29.13
2023-02-28T16:18:47.643Z,26.60
2023-02-28T16:21:14.790Z,29.27
2023-02-28T16:23:42.600Z,53.73
2023-02-28T16:26:10.045Z,39.37
2023-02-28T16:28:38.496Z,34.47
2023-02-28T16:31:07.566Z,63.93
2023-02-28T16:33:34.800Z,55.40
2023-02-28T16:36:02.152Z,35.67
2023-02-28T16:38:29.334Z,29.90
2023-02-28T16:40:57.408Z,27.87
2023-02-28T16:43:25.221Z,36.37
2023-02-28T16:46:01.174Z,103.60
2023-02-28T16:48:28.662Z,76.50
2023-02-28T16:50:55.808Z,93.53
2023-02-28T16:53:22.954Z,187.57
2023-02-28T16:55:51.835Z,163.60
2023-02-28T16:58:20.240Z,159.73
2023-02-28T17:00:47.383Z,117.10
2023-02-28T17:03:33.033Z,49.43
2023-02-28T17:06:01.119Z,52.30
2023-02-28T17:08:30.321Z,99.07
2023-02-28T17:10:57.507Z,115.30
2023-02-28T17:13:24.632Z,105.23
2023-02-28T17:15:52.059Z,82.70
2023-02-28T17:18:22.452Z,117.97
2023-02-28T17:20:49.594Z,80.63
2023-02-28T17:23:17.028Z,40.57
2023-02-28T17:25:55.717Z,68.97
2023-02-28T17:28:24.405Z,51.37
2023-02-28T17:30:51.555Z,48.93
2023-02-28T17:33:19.090Z,59.40
2023-02-28T17:35:46.300Z,65.97
2023-02-28T17:38:19.968Z,69.40
2023-02-28T17:40:47.145Z,60.87
2023-02-28T17:43:15.720Z,89.97
2023-02-28T17:45:42.911Z,56.77
2023-02-28T17:48:11.463Z,79.40
2023-02-28T17:50:38.577Z,172.47
2023-02-28T17:53:05.739Z,212.17
2023-02-28T17:55:34.675Z,277.53
2023-02-28T17:58:01.885Z,299.30
2023-02-28T18:00:29.107Z,289.37
2023-02-28T18:02:56.336Z,295.10
2023-02-28T18:05:23.527Z,298.83
2023-02-28T18:07:50.688Z,281.20
2023-02-28T18:10:20.485Z,308.73
2023-02-28T18:12:50.932Z,285.97
2023-02-28T18:15:18.619Z,368.47
2023-02-28T18:17:45.809Z,315.37
2023-02-28T18:20:13.036Z,299.53
2023-02-28T18:22:41.110Z,273.20
2023-02-28T18:25:09.240Z,277.33
2023-02-28T18:27:36.681Z,279.40
2023-02-28T18:30:05.109Z,282.07
2023-02-28T18:32:32.373Z,257.00
2023-02-28T18:34:59.576Z,251.27
2023-02-28T18:37:27.898Z,243.97
2023-02-28T18:39:55.146Z,220.40
2023-02-28T18:42:22.404Z,231.63
2023-02-28T18:44:49.537Z,219.10
2023-02-28T18:47:16.744Z,214.87
2023-02-28T18:49:43.893Z,188.10
2023-02-28T18:52:11.974Z,200.05
2023-02-28T18:54:39.145Z,184.10
2023-02-28T18:57:06.306Z,160.47
2023-02-28T18:59:33.629Z,143.40
2023-02-28T19:02:00.827Z,140.27
2023-02-28T19:04:27.976Z,220.00
2023-02-28T19:06:55.084Z,223.40
2023-02-28T19:09:22.241Z,228.97
2023-02-28T19:11:49.389Z,196.70
2023-02-28T19:14:16.573Z,198.17
2023-02-28T19:16:43.811Z,188.67
2023-02-28T19:19:11.161Z,194.37
2023-02-28T19:21:38.274Z,178.13
2023-02-28T19:24:05.718Z,151.40
2023-02-28T19:26:32.852Z,161.57
2023-02-28T19:29:02.548Z,173.67
2023-02-28T19:31:30.012Z,194.73
2023-02-28T19:33:58.962Z,213.17
2023-02-28T19:36:26.954Z,200.50
2023-02-28T19:38:54.135Z,182.97
2023-02-28T19:41:21.270Z,198.20
2023-02-28T19:43:48.397Z,191.23
2023-02-28T19:46:15.727Z,214.47
2023-02-28T19:48:44.723Z,223.53
2023-02-28T19:51:12.599Z,188.53
2023-02-28T19:53:40.140Z,157.90
2023-02-28T19:56:08.470Z,139.93
2023-02-28T19:58:35.701Z,130.10
2023-02-28T20:01:15.821Z,130.27
2023-02-28T20:03:43.375Z,128.40
2023-02-28T20:06:11.308Z,126.50
2023-02-28T20:08:38.595Z,110.93
2023-02-28T20:11:06.569Z,110.90
2023-02-28T20:13:33.901Z,104.63
2023-02-28T20:16:01.931Z,93.73
2023-02-28T20:18:29.242Z,91.40
2023-02-28T20:20:57.270Z,93.57
2023-02-28T20:23:24.588Z,121.63
2023-02-28T20:25:51.830Z,135.50
2023-02-28T20:28:19.425Z,135.67
2023-02-28T20:30:48.702Z,117.53
2023-02-28T20:33:16.836Z,109.60
2023-02-28T20:35:44.063Z,113.83
2023-02-28T20:38:11.361Z,103.40
2023-02-28T20:40:38.510Z,167.23
2023-02-28T20:43:05.695Z,112.57
2023-02-28T20:45:32.906Z,146.43
2023-02-28T20:48:00.079Z,100.30
2023-02-28T20:50:27.196Z,102.40
2023-02-28T20:52:54.390Z,109.43
2023-02-28T20:55:21.535Z,75.60
2023-02-28T20:57:49.936Z,82.63
2023-02-28T21:00:20.495Z,80.40
2023-02-28T21:02:47.661Z,96.00
2023-02-28T21:05:14.877Z,118.37
2023-02-28T21:07:42.074Z,120.97
2023-02-28T21:10:09.954Z,107.63
2023-02-28T21:12:37.110Z,100.60
2023-02-28T21:15:04.407Z,109.33
2023-02-28T21:17:31.644Z,137.87
2023-02-28T21:19:58.792Z,131.27
2023-02-28T21:22:25.977Z,133.10
2023-02-28T21:24:53.106Z,107.20
2023-02-28T21:27:20.249Z,87.13
2023-02-28T21:29:47.479Z,94.83
2023-02-28T21:32:14.822Z,97.07
2023-02-28T21:34:42.141Z,119.03
2023-02-28T21:37:09.401Z,99.80
2023-02-28T21:39:36.572Z,109.80
2023-02-28T21:42:04.178Z,105.30
2023-02-28T21:44:32.076Z,124.43
2023-02-28T21:47:02.540Z,119.13
2023-02-28T21:49:29.837Z,155.73
2023-02-28T21:51:57.196Z,151.93
2023-02-28T21:54:24.423Z,178.23
2023-02-28T21:56:51.727Z,138.20
2023-02-28T21:59:19.485Z,126.27
2023-02-28T22:01:46.778Z,115.67
2023-02-28T22:04:21.484Z,107.17
2023-02-28T22:06:52.678Z,113.20
2023-02-28T22:09:19.888Z,119.73
2023-02-28T22:11:47.234Z,124.50
2023-02-28T22:14:14.370Z,141.63
2023-02-28T22:16:51.240Z,136.63
2023-02-28T22:19:20.463Z,133.40
2023-02-28T22:21:47.827Z,131.83
2023-02-28T22:24:17.559Z,120.33
2023-02-28T22:26:44.908Z,122.50
2023-02-28T22:29:13.777Z,130.23
2023-02-28T22:31:40.942Z,163.13
2023-02-28T22:34:08.890Z,142.87
2023-02-28T22:36:36.104Z,117.07
2023-02-28T22:39:04.092Z,81.00
2023-02-28T22:41:31.382Z,77.63
2023-02-28T22:43:59.794Z,71.50
2023-02-28T22:46:27.428Z,74.60
2023-02-28T22:48:54.769Z,86.07
2023-02-28T22:51:23.271Z,86.07
2023-02-28T22:53:50.668Z,78.63
2023-02-28T22:56:18.265Z,85.43
2023-02-28T22:58:49.434Z,80.67
2023-02-28T23:01:16.822Z,90.53
2023-02-28T23:03:44.200Z,89.87
2023-02-28T23:06:14.999Z,92.00
2023-02-28T23:08:42.483Z,93.40
2023-02-28T23:11:09.623Z,85.13
2023-02-28T23:13:36.789Z,111.33
2023-02-28T23:16:07.360Z,133.93
2023-02-28T23:18:34.753Z,100.97
2023-02-28T23:21:02.014Z,113.20
2023-02-28T23:23:29.162Z,105.17
2023-02-28T23:25:56.376Z,96.27
2023-02-28T23:28:23.672Z,97.30
2023-02-28T23:30:51.758Z,93.70
2023-02-28T23:33:18.928Z,103.63
2023-02-28T23:35:46.118Z,83.27
2023-02-28T23:38:13.295Z,74.87
2023-02-28T23:40:41.886Z,86.87
2023-02-28T23:43:09.016Z,86.60
2023-02-28T23:45:36.218Z,76.43
2023-02-28T23:48:03.467Z,83.73
2023-02-28T23:50:30.614Z,81.67
2023-02-28T23:52:58.015Z,96.60
2023-02-28T23:55:25.460Z,92.20
2023-02-28T23:57:52.568Z,82.40
